createdAt,value
2023-05-15T00:00:51.331Z,2.03
2023-05-15T00:03:18.981Z,2.10
2023-05-15T00:05:46.504Z,1.75
2023-05-15T00:08:14.111Z,2.50
2023-05-15T00:10:47.518Z,2.45
2023-05-15T00:13:21.517Z,2.33
2023-05-15T00:15:49.006Z,2.55
2023-05-15T00:18:16.607Z,2.10
2023-05-15T00:20:44.425Z,2.13
2023-05-15T00:23:11.856Z,2.30
2023-05-15T00:25:39.387Z,1.80
2023-05-15T00:28:06.881Z,2.17
2023-05-15T00:30:34.380Z,2.17
2023-05-15T00:33:01.825Z,1.95
2023-05-15T00:35:29.528Z,1.98
2023-05-15T00:37:58.136Z,1.58
2023-05-15T00:40:26.881Z,1.92
2023-05-15T00:42:55.178Z,1.90
2023-05-15T00:45:26.229Z,1.90
2023-05-15T00:47:55.113Z,2.20
2023-05-15T00:50:23.827Z,1.95
2023-05-15T00:52:51.542Z,2.00
2023-05-15T00:55:19.173Z,1.90
2023-05-15T00:57:48.432Z,1.90
2023-05-15T01:00:18.615Z,2.03
2023-05-15T01:02:46.537Z,2.10
2023-05-15T01:05:14.219Z,1.88
2023-05-15T01:07:52.342Z,2.00
2023-05-15T01:10:21.452Z,2.13
2023-05-15T01:12:54.308Z,1.90
2023-05-15T01:15:21.839Z,2.15
2023-05-15T01:17:51.224Z,2.00
2023-05-15T01:20:20.352Z,2.00
2023-05-15T01:23:23.992Z,1.95
2023-05-15T01:26:19.965Z,2.40
2023-05-15T01:28:57.980Z,2.08
2023-05-15T01:31:31.548Z,2.20
2023-05-15T01:34:04.311Z,2.30
2023-05-15T01:36:47.113Z,2.30
2023-05-15T01:39:20.043Z,2.50
2023-05-15T01:42:00.959Z,2.53
2023-05-15T01:44:34.538Z,2.22
2023-05-15T01:47:09.047Z,2.63
2023-05-15T01:49:38.534Z,2.40
2023-05-15T01:52:13.506Z,2.45
2023-05-15T01:54:43.119Z,2.30
2023-05-15T01:57:11.724Z,2.47
2023-05-15T01:59:42.110Z,2.50
2023-05-15T02:02:11.301Z,2.53
2023-05-15T02:04:40.161Z,2.53
2023-05-15T02:07:08.179Z,2.35
2023-05-15T02:09:37.159Z,2.80
2023-05-15T02:12:06.143Z,2.80
2023-05-15T02:14:35.130Z,2.70
2023-05-15T02:17:02.661Z,2.92
2023-05-15T02:19:30.333Z,2.75
2023-05-15T02:21:57.850Z,3.00
2023-05-15T02:24:25.338Z,3.17
2023-05-15T02:27:18.883Z,2.63
2023-05-15T02:30:25.973Z,3.00
2023-05-15T02:33:14.997Z,2.90
2023-05-15T02:36:03.732Z,2.80
2023-05-15T02:38:58.969Z,2.53
2023-05-15T02:41:27.117Z,2.97
2023-05-15T02:43:56.180Z,2.60
2023-05-15T02:46:25.510Z,2.75
2023-05-15T02:48:55.162Z,2.95
2023-05-15T02:51:22.850Z,3.05
2023-05-15T02:53:50.899Z,2.90
2023-05-15T02:56:18.401Z,3.00
2023-05-15T02:58:46.080Z,3.30
2023-05-15T03:01:13.685Z,3.33
2023-05-15T03:03:41.167Z,3.45
2023-05-15T03:06:08.748Z,4.13
2023-05-15T03:08:36.167Z,3.65
2023-05-15T03:11:03.834Z,3.70
2023-05-15T03:13:31.281Z,4.03
2023-05-15T03:15:58.726Z,3.15
2023-05-15T03:18:26.268Z,3.40
2023-05-15T03:20:53.894Z,3.10
2023-05-15T03:23:21.406Z,2.83
2023-05-15T03:25:48.865Z,3.55
2023-05-15T03:28:16.486Z,3.47
2023-05-15T03:30:45.141Z,3.22
2023-05-15T03:33:12.721Z,4.05
2023-05-15T03:35:40.197Z,4.32
2023-05-15T03:38:07.708Z,3.88
2023-05-15T03:40:35.204Z,3.63
2023-05-15T03:43:02.676Z,4.00
2023-05-15T03:45:30.273Z,4.53
2023-05-15T03:47:57.862Z,4.22
2023-05-15T03:50:26.128Z,3.67
2023-05-15T03:52:53.829Z,3.92
2023-05-15T03:55:21.437Z,3.85
2023-05-15T03:57:48.996Z,4.25
2023-05-15T04:00:18.409Z,4.20
2023-05-15T04:02:48.660Z,3.90
2023-05-15T04:05:16.362Z,3.78
2023-05-15T04:07:44.166Z,3.72
2023-05-15T04:10:11.651Z,3.50
2023-05-15T04:12:39.359Z,3.10
2023-05-15T04:15:20.340Z,4.20
2023-05-15T04:17:49.605Z,4.05
2023-05-15T04:20:19.041Z,4.22
2023-05-15T04:22:46.951Z,3.58
2023-05-15T04:25:15.198Z,4.18
2023-05-15T04:27:43.937Z,4.30
2023-05-15T04:30:12.832Z,3.60
2023-05-15T04:32:40.720Z,4.80
2023-05-15T04:35:10.433Z,4.28
2023-05-15T04:37:42.155Z,4.05
2023-05-15T04:40:10.307Z,4.70
2023-05-15T04:42:39.147Z,3.83
2023-05-15T04:45:07.961Z,4.40
2023-05-15T04:47:35.944Z,3.60
2023-05-15T04:50:03.755Z,4.15
2023-05-15T04:52:32.444Z,4.47
2023-05-15T04:54:59.942Z,4.30
2023-05-15T04:57:27.955Z,4.40
2023-05-15T04:59:55.442Z,4.03
2023-05-15T05:02:23.594Z,4.15
2023-05-15T05:04:51.445Z,4.15
2023-05-15T05:07:19.065Z,3.80
2023-05-15T05:09:46.655Z,4.05
2023-05-15T05:12:14.694Z,4.28
2023-05-15T05:14:42.511Z,3.78
2023-05-15T05:17:10.201Z,3.45
2023-05-15T05:19:37.707Z,3.35
2023-05-15T05:22:06.013Z,3.35
2023-05-15T05:24:37.783Z,3.13
2023-05-15T05:27:05.630Z,3.13
2023-05-15T05:29:33.158Z,3.25
2023-05-15T05:32:01.464Z,3.08
2023-05-15T05:34:29.193Z,3.13
2023-05-15T05:36:56.692Z,2.92
2023-05-15T05:39:24.197Z,2.90
2023-05-15T05:41:51.640Z,2.78
2023-05-15T05:44:19.135Z,2.90
2023-05-15T05:46:46.674Z,3.28
2023-05-15T05:49:14.155Z,3.65
2023-05-15T05:51:41.693Z,3.20
2023-05-15T05:54:09.259Z,3.75
2023-05-15T05:56:36.747Z,3.50
2023-05-15T05:59:04.840Z,3.78
2023-05-15T06:01:32.509Z,4.10
2023-05-15T06:03:59.994Z,4.45
2023-05-15T06:06:27.693Z,4.35
2023-05-15T06:08:56.477Z,4.30
2023-05-15T06:11:25.572Z,4.53
2023-05-15T06:13:53.296Z,4.10
2023-05-15T06:16:21.962Z,5.22
2023-05-15T06:18:49.474Z,4.60
2023-05-15T06:21:16.960Z,4.88
2023-05-15T06:23:44.533Z,4.47
2023-05-15T06:26:12.135Z,4.88
2023-05-15T06:28:39.589Z,5.55
2023-05-15T06:31:07.214Z,4.70
2023-05-15T06:33:34.791Z,4.97
2023-05-15T06:36:02.342Z,5.75
2023-05-15T06:38:29.884Z,5.88
2023-05-15T06:40:57.306Z,5.25
2023-05-15T06:43:24.810Z,5.53
2023-05-15T06:45:52.359Z,5.80
2023-05-15T06:48:20.191Z,5.93
2023-05-15T06:50:47.665Z,6.07
2023-05-15T06:53:15.152Z,6.03
2023-05-15T06:55:42.644Z,5.53
2023-05-15T06:58:10.071Z,5.97
2023-05-15T07:00:37.719Z,5.57
2023-05-15T07:03:05.326Z,5.07
2023-05-15T07:05:32.983Z,5.70
2023-05-15T07:08:00.743Z,5.68
2023-05-15T07:10:28.436Z,4.82
2023-05-15T07:12:56.056Z,4.85
2023-05-15T07:15:23.509Z,4.88
2023-05-15T07:17:51.230Z,5.57
2023-05-15T07:20:18.740Z,5.50
2023-05-15T07:22:55.697Z,5.65
2023-05-15T07:25:25.694Z,5.78
2023-05-15T07:27:53.671Z,5.43
2023-05-15T07:30:21.179Z,5.53
2023-05-15T07:32:49.274Z,6.10
2023-05-15T07:35:18.555Z,5.32
2023-05-15T07:37:46.828Z,5.63
2023-05-15T07:40:15.694Z,5.82
2023-05-15T07:42:45.928Z,5.20
2023-05-15T07:45:13.482Z,5.82
2023-05-15T07:47:50.840Z,4.88
2023-05-15T07:50:18.991Z,5.97
2023-05-15T07:52:46.650Z,5.53
2023-05-15T07:55:14.111Z,5.88
2023-05-15T07:57:41.673Z,5.50
2023-05-15T08:00:12.875Z,5.93
2023-05-15T08:02:41.817Z,5.93
2023-05-15T08:05:09.476Z,5.72
2023-05-15T08:07:37.103Z,5.13
2023-05-15T08:10:06.471Z,6.07
2023-05-15T08:16:22.178Z,5.68
2023-05-15T08:18:53.186Z,6.05
2023-05-15T08:21:20.845Z,6.10
2023-05-15T08:23:48.272Z,5.75
2023-05-15T08:26:15.757Z,6.18
2023-05-15T08:28:43.203Z,5.93
2023-05-15T08:31:10.864Z,6.38
2023-05-15T08:33:38.314Z,6.22
2023-05-15T08:36:06.315Z,6.13
2023-05-15T08:38:33.894Z,6.45
2023-05-15T08:41:12.890Z,6.68
2023-05-15T08:43:41.874Z,7.35
2023-05-15T08:46:09.999Z,7.18
2023-05-15T08:48:40.481Z,7.15
2023-05-15T08:51:11.022Z,8.43
2023-05-15T08:53:38.603Z,7.82
2023-05-15T08:56:06.606Z,7.60
2023-05-15T08:58:34.610Z,7.03
2023-05-15T09:01:02.552Z,8.63
2023-05-15T09:03:30.162Z,8.60
2023-05-15T09:05:59.267Z,9.80
2023-05-15T09:08:28.785Z,10.02
2023-05-15T09:10:58.284Z,9.60
2023-05-15T09:13:25.866Z,8.32
2023-05-15T09:15:53.337Z,8.07
2023-05-15T09:18:21.157Z,7.03
2023-05-15T09:20:48.625Z,7.35
2023-05-15T09:23:27.207Z,7.30
2023-05-15T09:25:57.295Z,6.97
2023-05-15T09:28:34.046Z,6.63
2023-05-15T09:31:03.983Z,6.38
2023-05-15T09:33:36.839Z,6.25
2023-05-15T09:36:06.330Z,6.30
2023-05-15T09:38:43.894Z,6.55
2023-05-15T09:41:11.717Z,7.00
2023-05-15T09:43:41.159Z,6.30
2023-05-15T09:46:09.618Z,6.20
2023-05-15T09:48:37.339Z,8.13
2023-05-15T09:51:14.484Z,7.35
2023-05-15T09:53:42.038Z,7.45
2023-05-15T09:56:10.670Z,7.85
2023-05-15T09:58:38.158Z,8.48
2023-05-15T10:01:11.116Z,8.02
2023-05-15T10:03:42.429Z,7.60
2023-05-15T10:06:18.640Z,8.57
2023-05-15T10:08:53.884Z,9.15
2023-05-15T10:11:22.824Z,8.88
2023-05-15T10:13:50.516Z,7.13
2023-05-15T10:16:21.327Z,7.30
2023-05-15T10:18:51.502Z,8.07
2023-05-15T10:21:23.109Z,8.00
2023-05-15T10:23:52.833Z,8.02
2023-05-15T10:26:41.745Z,7.25
2023-05-15T10:29:21.491Z,7.82
2023-05-15T10:31:50.115Z,7.60
2023-05-15T10:34:19.140Z,8.27
2023-05-15T10:36:47.093Z,7.18
2023-05-15T10:39:15.282Z,6.38
2023-05-15T10:41:44.978Z,6.65
2023-05-15T10:44:14.971Z,5.95
2023-05-15T10:46:43.331Z,6.20
2023-05-15T10:49:11.119Z,6.93
2023-05-15T10:51:40.534Z,7.38
2023-05-15T10:54:09.814Z,5.90
2023-05-15T10:56:39.667Z,6.00
2023-05-15T10:59:11.578Z,6.32
2023-05-15T11:01:40.308Z,6.20
2023-05-15T11:04:18.788Z,6.43
2023-05-15T11:06:48.336Z,7.47
2023-05-15T11:09:21.707Z,7.60
2023-05-15T11:11:52.125Z,7.65
2023-05-15T11:14:20.035Z,7.03
2023-05-15T11:16:53.548Z,5.78
2023-05-15T11:22:17.513Z,6.45
2023-05-15T11:24:59.639Z,5.68
2023-05-15T11:27:31.720Z,7.30
2023-05-15T11:30:13.477Z,5.00
2023-05-15T11:32:47.033Z,4.63
2023-05-15T11:35:44.009Z,5.03
2023-05-15T11:38:11.453Z,6.03
2023-05-15T11:41:04.319Z,5.90
2023-05-15T11:43:33.279Z,5.93
2023-05-15T11:46:03.601Z,5.70
2023-05-15T11:48:33.636Z,6.15
2023-05-15T11:51:02.412Z,5.50
2023-05-15T11:53:31.410Z,5.60
2023-05-15T11:55:59.458Z,5.07
2023-05-15T11:58:27.111Z,4.10
2023-05-15T12:00:54.896Z,4.55
2023-05-15T12:03:36.493Z,5.30
2023-05-15T12:06:04.573Z,5.47
2023-05-15T12:08:36.376Z,6.65
2023-05-15T12:11:04.982Z,6.95
2023-05-15T12:13:33.909Z,7.47
2023-05-15T12:16:05.242Z,7.10
2023-05-15T12:18:33.817Z,7.70
2023-05-15T12:21:01.453Z,7.68
2023-05-15T12:23:29.039Z,7.63
2023-05-15T12:26:01.154Z,7.40
2023-05-15T12:28:30.423Z,6.85
2023-05-15T12:30:58.666Z,6.82
2023-05-15T12:33:26.422Z,6.53
2023-05-15T12:35:59.881Z,7.45
2023-05-15T12:38:29.310Z,7.85
2023-05-15T12:40:57.695Z,7.82
2023-05-15T12:43:26.372Z,7.68
2023-05-15T12:45:55.441Z,8.10
2023-05-15T12:48:23.118Z,8.60
2023-05-15T12:50:50.606Z,7.78
2023-05-15T12:53:18.213Z,8.20
2023-05-15T12:55:47.072Z,8.68
2023-05-15T12:58:18.822Z,8.00
2023-05-15T13:00:47.000Z,8.85
2023-05-15T13:03:15.418Z,8.00
2023-05-15T13:05:45.586Z,7.78
2023-05-15T13:08:18.575Z,8.30
2023-05-15T13:10:47.450Z,7.32
2023-05-15T13:13:15.630Z,8.45
2023-05-15T13:15:45.138Z,6.85
2023-05-15T13:18:14.520Z,6.72
2023-05-15T13:20:53.767Z,7.60
2023-05-15T13:23:24.421Z,7.20
2023-05-15T13:25:51.876Z,7.70
2023-05-15T13:28:19.418Z,5.80
2023-05-15T13:30:46.970Z,7.10
2023-05-15T13:33:14.603Z,6.85
2023-05-15T13:35:43.236Z,6.90
2023-05-15T13:38:11.860Z,6.78
2023-05-15T13:40:39.701Z,6.10
2023-05-15T13:43:07.319Z,6.28
2023-05-15T13:45:34.969Z,6.57
2023-05-15T13:48:02.733Z,6.32
2023-05-15T13:50:30.282Z,7.07
2023-05-15T13:52:57.819Z,7.15
2023-05-15T13:55:26.272Z,6.68
2023-05-15T13:57:53.790Z,7.68
2023-05-15T14:00:21.867Z,9.32
2023-05-15T14:02:49.387Z,8.80
2023-05-15T14:05:17.634Z,6.60
2023-05-15T14:07:45.191Z,7.75
2023-05-15T14:10:12.731Z,7.80
2023-05-15T14:12:41.094Z,6.78
2023-05-15T14:15:09.258Z,6.60
2023-05-15T14:17:36.703Z,8.07
2023-05-15T14:20:05.410Z,9.07
2023-05-15T14:22:33.108Z,8.82
2023-05-15T14:25:00.674Z,8.40
2023-05-15T14:27:28.238Z,8.73
2023-05-15T14:29:56.900Z,7.88
2023-05-15T14:32:25.163Z,7.47
2023-05-15T14:34:52.603Z,7.82
2023-05-15T14:37:20.094Z,6.43
2023-05-15T14:39:47.547Z,6.45
2023-05-15T14:42:15.186Z,6.18
2023-05-15T14:44:42.694Z,6.70
2023-05-15T14:47:16.425Z,6.13
2023-05-15T14:49:43.917Z,6.15
2023-05-15T14:52:12.512Z,6.85
2023-05-15T14:54:40.280Z,6.15
2023-05-15T14:57:08.202Z,6.63
2023-05-15T14:59:35.731Z,7.68
2023-05-15T15:02:03.456Z,6.95
2023-05-15T15:04:34.535Z,6.82
2023-05-15T15:07:05.466Z,6.65
2023-05-15T15:09:33.050Z,7.35
2023-05-15T15:12:00.757Z,7.25
2023-05-15T15:14:28.166Z,6.55
2023-05-15T15:16:55.663Z,6.25
2023-05-15T15:19:23.775Z,6.50
2023-05-15T15:21:51.363Z,5.75
2023-05-15T15:24:18.934Z,6.43
2023-05-15T15:26:46.436Z,7.22
2023-05-15T15:29:13.959Z,6.55
2023-05-15T15:31:41.381Z,7.53
2023-05-15T15:34:09.134Z,6.68
2023-05-15T15:36:38.820Z,5.38
2023-05-15T15:39:06.368Z,5.32
2023-05-15T15:41:33.840Z,5.05
2023-05-15T15:44:01.423Z,5.95
2023-05-15T15:46:29.312Z,5.53
2023-05-15T15:48:57.132Z,5.85
2023-05-15T15:51:24.676Z,6.20
2023-05-15T15:53:52.203Z,5.40
2023-05-15T15:56:19.764Z,5.95
2023-05-15T15:58:47.201Z,5.68
2023-05-15T16:01:14.970Z,4.38
2023-05-15T16:03:42.410Z,4.45
2023-05-15T16:06:09.938Z,5.57
2023-05-15T16:08:37.630Z,4.90
2023-05-15T16:11:05.212Z,5.38
2023-05-15T16:13:32.717Z,4.95
2023-05-15T16:16:00.184Z,6.00
2023-05-15T16:18:27.738Z,5.53
2023-05-15T16:20:55.286Z,5.78
2023-05-15T16:23:22.824Z,5.15
2023-05-15T16:25:50.444Z,5.80
2023-05-15T16:28:17.935Z,5.75
2023-05-15T16:30:49.447Z,6.10
2023-05-15T16:33:18.364Z,5.03
2023-05-15T16:35:46.610Z,5.22
2023-05-15T16:38:14.692Z,4.88
2023-05-15T16:40:42.276Z,5.20
2023-05-15T16:43:09.993Z,5.32
2023-05-15T16:45:37.555Z,5.13
2023-05-15T16:48:05.792Z,5.57
2023-05-15T16:50:36.264Z,4.80
2023-05-15T16:53:04.981Z,5.25
2023-05-15T16:55:32.757Z,4.90
2023-05-15T16:58:00.208Z,4.43
2023-05-15T17:00:28.092Z,5.15
2023-05-15T17:02:55.945Z,4.28
2023-05-15T17:05:23.628Z,3.65
2023-05-15T17:07:51.053Z,4.88
2023-05-15T17:10:18.571Z,4.50
2023-05-15T17:12:46.183Z,4.60
2023-05-15T17:15:13.828Z,4.38
2023-05-15T17:17:41.460Z,3.92
2023-05-15T17:20:09.507Z,4.10
2023-05-15T17:22:37.244Z,3.90
2023-05-15T17:25:05.132Z,4.38
2023-05-15T17:27:32.876Z,4.25
2023-05-15T17:30:00.956Z,4.60
2023-05-15T17:32:30.304Z,5.00
2023-05-15T17:34:57.771Z,5.13
2023-05-15T17:37:25.254Z,5.20
2023-05-15T17:39:53.254Z,5.25
2023-05-15T17:42:21.522Z,4.20
2023-05-15T17:44:49.003Z,4.60
2023-05-15T17:47:16.794Z,4.15
2023-05-15T17:49:44.265Z,5.28
2023-05-15T17:52:11.766Z,3.97
2023-05-15T17:54:39.237Z,4.55
2023-05-15T17:57:06.612Z,4.40
2023-05-15T17:59:34.242Z,4.68
2023-05-15T18:02:02.087Z,4.20
2023-05-15T18:04:29.631Z,3.97
2023-05-15T18:06:57.117Z,4.35
2023-05-15T18:09:24.910Z,4.47
2023-05-15T18:11:52.604Z,3.95
2023-05-15T18:14:20.084Z,4.45
2023-05-15T18:16:47.581Z,4.53
2023-05-15T18:19:15.146Z,4.75
2023-05-15T18:21:42.748Z,4.32
2023-05-15T18:24:10.220Z,4.43
2023-05-15T18:26:37.936Z,4.70
2023-05-15T18:29:05.679Z,5.65
2023-05-15T18:31:33.297Z,4.93
2023-05-15T18:34:01.525Z,6.10
2023-05-15T18:36:28.988Z,5.35
2023-05-15T18:38:56.795Z,6.63
2023-05-15T18:41:24.336Z,5.72
2023-05-15T18:43:52.425Z,4.85
2023-05-15T18:46:20.102Z,4.55
2023-05-15T18:48:47.606Z,5.10
2023-05-15T18:51:15.133Z,5.20
2023-05-15T18:53:42.658Z,4.65
2023-05-15T18:56:10.174Z,4.45
2023-05-15T18:58:37.648Z,4.50
2023-05-15T19:01:05.168Z,6.82
2023-05-15T19:03:35.623Z,7.55
2023-05-15T19:06:03.268Z,5.40
2023-05-15T19:08:30.642Z,4.63
2023-05-15T19:11:00.649Z,4.45
2023-05-15T19:13:32.712Z,4.00
2023-05-15T19:16:00.320Z,4.75
2023-05-15T19:18:27.713Z,4.90
2023-05-15T19:20:56.806Z,4.53
2023-05-15T19:23:24.784Z,4.60
2023-05-15T19:25:52.719Z,4.43
2023-05-15T19:28:20.266Z,4.40
2023-05-15T19:30:47.712Z,4.88
2023-05-15T19:33:18.413Z,5.70
2023-05-15T19:35:45.979Z,4.88
2023-05-15T19:38:13.725Z,6.18
2023-05-15T19:40:44.139Z,6.18
2023-05-15T19:43:11.660Z,5.50
2023-05-15T19:45:42.481Z,4.93
2023-05-15T19:48:10.188Z,5.50
2023-05-15T19:50:40.600Z,5.78
2023-05-15T19:53:08.489Z,5.13
2023-05-15T19:55:36.155Z,5.35
2023-05-15T19:58:04.179Z,6.00
2023-05-15T20:00:31.798Z,5.70
2023-05-15T20:03:00.734Z,5.82
2023-05-15T20:05:28.779Z,6.78
2023-05-15T20:07:56.269Z,6.60
2023-05-15T20:10:24.473Z,5.88
2023-05-15T20:12:52.272Z,5.95
2023-05-15T20:15:19.718Z,6.32
2023-05-15T20:17:47.274Z,6.72
2023-05-15T20:20:15.148Z,6.63
2023-05-15T20:22:44.597Z,5.85
2023-05-15T20:25:12.080Z,6.47
2023-05-15T20:27:39.651Z,6.10
2023-05-15T20:30:07.736Z,5.85
2023-05-15T20:32:36.487Z,6.10
2023-05-15T20:35:04.588Z,5.68
2023-05-15T20:37:32.133Z,5.70
2023-05-15T20:40:00.387Z,6.07
2023-05-15T20:42:28.501Z,5.93
2023-05-15T20:44:55.897Z,6.65
2023-05-15T20:47:23.465Z,6.05
2023-05-15T20:49:51.057Z,6.60
2023-05-15T20:52:18.618Z,5.95
2023-05-15T20:54:46.204Z,5.85
2023-05-15T20:57:13.652Z,6.03
2023-05-15T20:59:41.652Z,5.97
2023-05-15T21:02:09.109Z,6.13
2023-05-15T21:04:36.670Z,6.05
2023-05-15T21:07:04.148Z,6.10
2023-05-15T21:09:31.764Z,5.63
2023-05-15T21:11:59.960Z,6.05
2023-05-15T21:14:27.540Z,6.15
2023-05-15T21:16:55.129Z,5.65
2023-05-15T21:19:22.857Z,6.30
2023-05-15T21:21:50.542Z,6.35
2023-05-15T21:24:18.096Z,5.93
2023-05-15T21:26:45.967Z,6.45
2023-05-15T21:29:13.816Z,6.45
2023-05-15T21:31:42.234Z,6.28
2023-05-15T21:34:09.754Z,5.95
2023-05-15T21:36:37.288Z,6.93
2023-05-15T21:39:04.788Z,8.45
2023-05-15T21:41:32.409Z,8.93
2023-05-15T21:43:59.799Z,10.10
2023-05-15T21:46:27.330Z,7.90
2023-05-15T21:48:54.762Z,6.88
2023-05-15T21:51:22.283Z,7.47
2023-05-15T21:53:49.806Z,7.20
2023-05-15T21:56:17.472Z,7.25
2023-05-15T21:58:44.888Z,7.00
2023-05-15T22:01:12.446Z,7.55
2023-05-15T22:03:39.913Z,7.07
2023-05-15T22:06:07.600Z,8.02
2023-05-15T22:08:35.153Z,7.18
2023-05-15T22:11:03.697Z,7.47
2023-05-15T22:13:31.242Z,7.95
2023-05-15T22:15:58.745Z,8.00
2023-05-15T22:18:28.327Z,8.10
2023-05-15T22:20:56.415Z,7.43
2023-05-15T22:23:23.894Z,7.55
2023-05-15T22:25:51.554Z,8.35
2023-05-15T22:28:19.041Z,8.05
2023-05-15T22:30:46.779Z,7.97
2023-05-15T22:33:14.430Z,7.95
2023-05-15T22:35:41.918Z,8.48
2023-05-15T22:38:09.828Z,7.88
2023-05-15T22:40:37.342Z,8.80
2023-05-15T22:43:04.776Z,8.35
2023-05-15T22:45:32.311Z,9.23
2023-05-15T22:47:59.802Z,8.68
2023-05-15T22:50:27.828Z,8.55
2023-05-15T22:52:55.883Z,8.80
2023-05-15T22:55:23.374Z,9.35
2023-05-15T22:57:50.902Z,8.55
2023-05-15T23:00:19.275Z,8.77
2023-05-15T23:02:46.891Z,8.90
2023-05-15T23:05:14.419Z,9.07
2023-05-15T23:07:41.924Z,9.95
2023-05-15T23:10:09.840Z,9.10
2023-05-15T23:12:37.329Z,9.43
2023-05-15T23:15:05.526Z,9.63
2023-05-15T23:17:33.106Z,10.02
2023-05-15T23:20:00.930Z,9.48
2023-05-15T23:22:28.594Z,9.80
2023-05-15T23:24:56.113Z,9.93
2023-05-15T23:27:23.552Z,9.77
2023-05-15T23:29:51.140Z,9.82
2023-05-15T23:32:18.621Z,9.68
2023-05-15T23:34:46.545Z,10.25
2023-05-15T23:37:14.332Z,9.75
2023-05-15T23:39:41.802Z,9.90
2023-05-15T23:42:12.599Z,9.63
2023-05-15T23:44:40.068Z,9.88
2023-05-15T23:47:08.794Z,10.38
2023-05-15T23:49:36.354Z,10.32
2023-05-15T23:52:03.983Z,10.95
2023-05-15T23:54:31.475Z,10.85
2023-05-15T23:56:58.913Z,10.55
2023-05-15T23:59:26.369Z,10.90
